Time;durP1;ratioP1;P1;durP2;ratioP2;P2;SDS_P1;SDS_P2;PMS_P1;PMS_P2;Temp;Humidity;BMP_temperature;BMP_pressure;BME280_temperature;BME280_humidity;BME280_pressure;Samples;Min_cycle;Max_cycle;Signal;HPM_P1;HPM_P2
2023/02/24 00:01:40;;;;;;;30.13;18.42;;;9.80;99.90;;;;;;4993869;28;20029;-45
2023/02/24 00:04:09;;;;;;;32.80;20.30;;;9.80;99.90;;;;;;4993892;28;20034;-49
2023/02/24 00:06:39;;;;;;;33.53;19.38;;;9.80;99.90;;;;;;4993812;28;20026;-45
2023/02/24 00:09:14;;;;;;;36.08;19.58;;;9.90;99.90;;;;;;4993751;28;20027;-45
2023/02/24 00:11:43;;;;;;;32.72;18.77;;;9.90;99.90;;;;;;4993967;28;20032;-49
2023/02/24 00:14:11;;;;;;;34.17;20.13;;;9.80;99.90;;;;;;4993619;28;20501;-44
2023/02/24 00:16:37;;;;;;;34.72;20.00;;;9.90;99.90;;;;;;4993492;28;20030;-48
2023/02/24 00:19:06;;;;;;;35.30;21.00;;;9.90;99.90;;;;;;4993769;28;20026;-46
2023/02/24 00:21:32;;;;;;;34.08;19.80;;;9.90;99.90;;;;;;4993595;28;20027;-44
2023/02/24 00:23:58;;;;;;;33.10;19.63;;;9.90;99.90;;;;;;4993182;28;20450;-44
2023/02/24 00:26:24;;;;;;;30.98;19.42;;;9.90;99.90;;;;;;4993194;28;20149;-46
2023/02/24 00:28:50;;;;;;;35.60;20.13;;;9.80;99.90;;;;;;4993491;28;20034;-47
2023/02/24 00:31:17;;;;;;;38.95;20.70;;;9.80;99.90;;;;;;4993416;28;20109;-45
2023/02/24 00:33:44;;;;;;;31.00;19.75;;;9.90;99.90;;;;;;4993224;28;20034;-46
2023/02/24 00:36:22;;;;;;;32.97;19.60;;;10.60;99.90;;;;;;4991996;28;20052;-47
2023/02/24 00:38:49;;;;;;;32.63;21.73;;;9.70;99.90;;;;;;4993318;28;20085;-43
2023/02/24 00:41:17;;;;;;;35.30;19.75;;;9.60;99.90;;;;;;4993108;28;20058;-48
2023/02/24 00:43:45;;;;;;;32.63;20.10;;;9.50;99.90;;;;;;4992827;28;20030;-44
2023/02/24 00:46:19;;;;;;;35.03;19.92;;;9.50;99.90;;;;;;4992844;28;20545;-47
2023/02/24 00:48:47;;;;;;;36.63;20.70;;;9.50;99.90;;;;;;4993109;28;20508;-47
2023/02/24 00:51:15;;;;;;;37.42;20.80;;;9.50;99.90;;;;;;4992825;28;20173;-47
2023/02/24 00:53:42;;;;;;;34.30;20.60;;;9.40;99.90;;;;;;4992909;28;20034;-45
2023/02/24 00:56:14;;;;;;;34.40;19.60;;;9.40;99.90;;;;;;4992628;28;20029;-46
2023/02/24 00:58:41;;;;;;;41.33;21.10;;;9.40;99.90;;;;;;4992610;28;20026;-45
2023/02/24 01:01:18;;;;;;;35.50;20.05;;;9.40;99.90;;;;;;4992895;28;20401;-46
2023/02/24 01:03:45;;;;;;;39.03;20.23;;;9.30;99.90;;;;;;4992669;28;20022;-47
2023/02/24 01:06:12;;;;;;;37.08;20.35;;;9.30;99.90;;;;;;4992360;28;20080;-46
2023/02/24 01:08:39;;;;;;;35.50;19.23;;;9.30;99.90;;;;;;4992351;28;20030;-47
2023/02/24 01:13:49;;;;;;;36.90;19.23;;;9.30;99.90;;;;;;4992634;28;20080;-46
2023/02/24 01:16:17;;;;;;;36.88;21.10;;;9.30;99.90;;;;;;4992523;28;20030;-44
2023/02/24 01:18:44;;;;;;;40.17;19.70;;;9.30;99.90;;;;;;4992632;28;20045;-45
2023/02/24 01:21:11;;;;;;;39.28;22.40;;;9.40;99.90;;;;;;4992316;28;20029;-48
2023/02/24 01:23:37;;;;;;;39.35;21.92;;;9.50;99.90;;;;;;4992130;28;20038;-44
2023/02/24 01:26:03;;;;;;;40.35;21.20;;;9.50;99.90;;;;;;4992150;28;20401;-44
2023/02/24 01:28:29;;;;;;;40.45;22.02;;;9.50;99.90;;;;;;4992208;28;20030;-45
2023/02/24 01:31:00;;;;;;;43.78;22.48;;;9.50;99.90;;;;;;4992542;28;20022;-45
2023/02/24 01:33:26;;;;;;;41.25;21.60;;;9.50;99.90;;;;;;4992709;28;20031;-44
2023/02/24 01:35:54;;;;;;;36.72;20.00;;;9.50;99.90;;;;;;4992053;28;20027;-45
2023/02/24 01:38:22;;;;;;;39.33;20.23;;;9.40;99.90;;;;;;4991896;28;20022;-46
2023/02/24 01:40:59;;;;;;;41.60;21.05;;;9.40;99.90;;;;;;4992329;28;20022;-47
2023/02/24 01:43:25;;;;;;;38.33;19.80;;;9.50;99.90;;;;;;4992008;28;20105;-48
2023/02/24 01:45:53;;;;;;;41.67;20.30;;;9.40;99.90;;;;;;4991961;28;20543;-46
2023/02/24 01:48:18;;;;;;;36.83;19.10;;;9.40;99.90;;;;;;4991910;28;20109;-44
2023/02/24 01:50:45;;;;;;;36.03;20.15;;;9.40;99.90;;;;;;4991700;28;20494;-48
2023/02/24 01:53:11;;;;;;;40.42;20.13;;;9.40;99.90;;;;;;4991922;28;20037;-47
2023/02/24 01:55:45;;;;;;;35.67;19.73;;;9.30;99.90;;;;;;4991873;28;20390;-47
2023/02/24 01:58:18;;;;;;;33.05;18.02;;;9.30;99.90;;;;;;4991997;28;20022;-48
2023/02/24 02:00:45;;;;;;;37.53;19.67;;;9.30;99.90;;;;;;4991840;28;20105;-47
2023/02/24 02:03:18;;;;;;;35.60;18.35;;;9.20;99.90;;;;;;4991920;28;20053;-46
2023/02/24 02:05:47;;;;;;;40.88;20.15;;;9.30;99.90;;;;;;4991836;28;20433;-48
2023/02/24 02:08:14;;;;;;;38.80;21.00;;;9.20;99.90;;;;;;4991844;28;20029;-47
2023/02/24 02:10:42;;;;;;;40.78;19.90;;;9.20;99.90;;;;;;4992105;28;20029;-44
2023/02/24 02:13:09;;;;;;;36.83;19.63;;;9.10;99.90;;;;;;4990595;28;20406;-50
2023/02/24 02:15:45;;;;;;;38.75;20.70;;;9.10;99.90;;;;;;4991588;28;20022;-46
2023/02/24 02:18:32;;;;;;;38.03;19.35;;;9.10;99.90;;;;;;4991972;28;20033;-48
2023/02/24 02:21:30;;;;;;;36.22;19.65;;;9.10;99.90;;;;;;4991859;28;20444;-47
2023/02/24 02:24:03;;;;;;;38.40;20.45;;;9.10;99.90;;;;;;4991412;28;20032;-45
2023/02/24 02:26:43;;;;;;;37.25;19.88;;;9.20;99.90;;;;;;4991649;28;20029;-51
2023/02/24 02:29:33;;;;;;;35.03;18.88;;;9.20;99.90;;;;;;4991641;28;20072;-44
2023/02/24 02:32:22;;;;;;;34.55;18.80;;;9.20;99.90;;;;;;4991482;28;20517;-48
2023/02/24 02:34:53;;;;;;;36.50;19.45;;;9.30;99.90;;;;;;4991549;28;20037;-46
2023/02/24 02:38:03;;;;;;;38.42;20.05;;;9.30;99.90;;;;;;4991548;28;20022;-44
2023/02/24 02:40:38;;;;;;;38.35;20.02;;;9.30;99.90;;;;;;4968695;28;20394;-45
2023/02/24 02:43:25;;;;;;;42.95;21.00;;;9.30;99.90;;;;;;4991510;28;20089;-45
2023/02/24 02:46:02;;;;;;;38.55;20.88;;;9.30;99.90;;;;;;4991325;28;20014;-45
2023/02/24 02:48:59;;;;;;;38.20;21.15;;;9.30;99.90;;;;;;4990483;28;20427;-48
2023/02/24 02:51:37;;;;;;;41.15;20.63;;;9.20;99.90;;;;;;4994325;28;20045;-44
2023/02/24 02:54:21;;;;;;;45.70;21.88;;;9.20;99.90;;;;;;4994898;28;20033;-45
2023/02/24 02:56:58;;;;;;;44.08;22.20;;;9.10;99.90;;;;;;4994758;28;20041;-45
2023/02/24 02:59:28;;;;;;;43.30;21.58;;;9.20;99.90;;;;;;4994960;28;20034;-46
2023/02/24 03:02:10;;;;;;;37.80;20.48;;;9.20;99.90;;;;;;4993501;28;20273;-44
2023/02/24 03:04:39;;;;;;;42.10;20.73;;;9.10;99.90;;;;;;4994622;28;20521;-44
2023/02/24 03:07:06;;;;;;;42.92;21.58;;;9.10;99.90;;;;;;4994506;28;20030;-44
2023/02/24 03:09:35;;;;;;;39.33;21.08;;;9.10;99.90;;;;;;4993418;28;20030;-44
2023/02/24 03:12:09;;;;;;;40.25;21.17;;;9.10;99.90;;;;;;4994919;28;20026;-44
2023/02/24 03:14:43;;;;;;;37.35;20.05;;;9.00;99.90;;;;;;4994551;28;20105;-48
2023/02/24 03:17:20;;;;;;;36.78;19.70;;;9.00;99.90;;;;;;4994547;28;20054;-47
2023/02/24 03:19:52;;;;;;;46.60;23.23;;;8.90;99.90;;;;;;4994667;28;20987;-48
2023/02/24 03:22:24;;;;;;;42.38;21.05;;;8.90;99.90;;;;;;4994574;28;20030;-47
2023/02/24 03:24:49;;;;;;;39.97;21.98;;;8.90;99.90;;;;;;4994476;28;20034;-46
2023/02/24 03:27:26;;;;;;;42.80;22.23;;;9.00;99.90;;;;;;4994314;28;20512;-46
2023/02/24 03:29:57;;;;;;;40.40;21.80;;;9.10;99.90;;;;;;4992998;28;20413;-46
2023/02/24 03:32:42;;;;;;;42.25;21.17;;;9.10;99.90;;;;;;4994376;28;20023;-50
2023/02/24 03:35:14;;;;;;;44.00;21.77;;;9.00;99.90;;;;;;4994243;28;20014;-45
2023/02/24 03:37:39;;;;;;;42.35;20.42;;;8.90;99.90;;;;;;4994332;28;20030;-45
2023/02/24 03:40:10;;;;;;;48.15;21.65;;;8.90;99.90;;;;;;4992871;28;20037;-44
2023/02/24 03:42:39;;;;;;;41.03;21.23;;;8.90;99.90;;;;;;4994093;28;20521;-47
2023/02/24 03:45:06;;;;;;;40.88;20.45;;;8.90;99.90;;;;;;4994020;28;20061;-46
2023/02/24 03:47:32;;;;;;;45.22;20.92;;;9.00;99.90;;;;;;4994012;28;20105;-50
2023/02/24 03:49:58;;;;;;;42.22;21.20;;;8.90;99.90;;;;;;4994014;28;20490;-49
2023/02/24 03:52:58;;;;;;;44.00;22.38;;;9.00;99.90;;;;;;4993865;28;20038;-47
2023/02/24 03:56:10;;;;;;;45.72;22.20;;;9.00;99.90;;;;;;4993946;28;20449;-45
2023/02/24 03:58:59;;;;;;;40.90;21.98;;;9.00;99.90;;;;;;4993916;28;20037;-47
2023/02/24 04:01:56;;;;;;;38.85;20.58;;;9.00;99.90;;;;;;4993625;28;20025;-44
2023/02/24 04:04:44;;;;;;;40.83;20.73;;;9.00;99.90;;;;;;4993778;28;20022;-46
2023/02/24 04:07:42;;;;;;;41.80;20.88;;;8.90;99.90;;;;;;4993570;28;20106;-43
2023/02/24 04:10:22;;;;;;;45.35;22.05;;;8.90;99.90;;;;;;4994070;28;20517;-45
2023/02/24 04:13:03;;;;;;;43.30;22.70;;;9.00;99.90;;;;;;4993682;28;20022;-45
2023/02/24 04:15:42;;;;;;;46.83;22.52;;;9.00;99.90;;;;;;4993524;28;20142;-44
2023/02/24 04:18:20;;;;;;;41.47;21.08;;;9.00;99.90;;;;;;4993607;28;20061;-45
2023/02/24 04:20:51;;;;;;;43.95;20.85;;;8.90;99.90;;;;;;4994338;28;20038;-44
2023/02/24 04:23:22;;;;;;;40.97;20.33;;;9.00;99.90;;;;;;4993309;28;20106;-45
2023/02/24 04:25:51;;;;;;;42.03;22.48;;;8.90;99.90;;;;;;4993424;28;20443;-41
2023/02/24 04:28:20;;;;;;;45.30;23.48;;;8.90;99.90;;;;;;4993241;28;20258;-44
2023/02/24 04:30:50;;;;;;;42.85;22.50;;;8.90;99.90;;;;;;4993076;28;20026;-45
2023/02/24 04:33:16;;;;;;;48.33;22.98;;;8.90;99.90;;;;;;4991967;28;20084;-45
2023/02/24 04:35:44;;;;;;;40.92;21.52;;;8.80;99.90;;;;;;4993292;28;20058;-48
2023/02/24 04:38:10;;;;;;;45.67;22.38;;;8.80;99.90;;;;;;4992068;28;20019;-46
2023/02/24 04:40:36;;;;;;;44.25;21.55;;;8.70;99.90;;;;;;4993156;28;20453;-46
2023/02/24 04:43:02;;;;;;;42.10;21.55;;;8.80;99.90;;;;;;4993028;28;20029;-47
2023/02/24 04:45:29;;;;;;;43.15;21.42;;;8.80;99.90;;;;;;4992980;28;20023;-48
2023/02/24 04:47:59;;;;;;;47.97;21.65;;;8.70;99.90;;;;;;4993040;28;20015;-47
2023/02/24 04:50:27;;;;;;;48.92;22.65;;;8.70;99.90;;;;;;4992443;28;20030;-45
2023/02/24 04:52:56;;;;;;;44.30;22.85;;;8.70;99.90;;;;;;4992701;28;20022;-46
2023/02/24 04:55:27;;;;;;;52.30;22.90;;;8.70;99.90;;;;;;4992956;28;20569;-45
2023/02/24 04:57:57;;;;;;;47.80;23.80;;;8.80;99.90;;;;;;4992691;28;20022;-48
2023/02/24 05:00:25;;;;;;;52.05;23.00;;;8.70;99.90;;;;;;4991497;28;20037;-51
2023/02/24 05:02:53;;;;;;;44.55;23.40;;;8.70;99.90;;;;;;4992711;28;20030;-46
2023/02/24 05:05:24;;;;;;;42.33;22.10;;;8.70;99.90;;;;;;4992392;28;20390;-46
2023/02/24 05:07:50;;;;;;;40.58;21.55;;;8.60;99.90;;;;;;4992792;28;20033;-48
2023/02/24 05:10:17;;;;;;;43.50;21.63;;;8.60;99.90;;;;;;4992359;28;20066;-47
2023/02/24 05:12:43;;;;;;;47.65;22.35;;;8.90;99.90;;;;;;4991847;28;20022;-51
2023/02/24 05:15:11;;;;;;;45.53;22.48;;;8.60;99.90;;;;;;4992237;28;20022;-51
2023/02/24 05:17:37;;;;;;;48.30;23.67;;;8.60;99.90;;;;;;4992318;28;20090;-44
2023/02/24 05:22:50;;;;;;;46.20;21.58;;;8.60;99.90;;;;;;4992295;28;20081;-45
2023/02/24 05:25:17;;;;;;;42.45;21.95;;;8.60;99.90;;;;;;5029558;23;20054;-39
2023/02/24 05:27:42;;;;;;;43.05;21.75;;;8.50;99.90;;;;;;5010364;28;20057;-40
2023/02/24 05:30:09;;;;;;;48.53;22.95;;;8.50;99.90;;;;;;5012158;28;20114;-40
2023/02/24 05:32:37;;;;;;;42.08;19.90;;;8.50;99.90;;;;;;5010586;28;20033;-39
2023/02/24 05:35:04;;;;;;;39.88;19.75;;;8.40;99.90;;;;;;5011788;28;20026;-39
2023/02/24 05:37:29;;;;;;;46.25;22.27;;;8.20;99.90;;;;;;5011835;28;20099;-42
2023/02/24 05:39:59;;;;;;;46.33;21.98;;;8.20;99.90;;;;;;5011921;28;20521;-40
2023/02/24 05:42:26;;;;;;;45.33;20.20;;;8.20;99.90;;;;;;5011712;28;20030;-41
2023/02/24 05:44:52;;;;;;;51.95;22.90;;;8.20;99.90;;;;;;5011893;28;20029;-39
2023/02/24 05:47:18;;;;;;;49.42;22.08;;;8.20;99.90;;;;;;5012009;28;20589;-39
2023/02/24 05:49:46;;;;;;;41.53;21.67;;;8.20;99.90;;;;;;5011850;28;20033;-39
2023/02/24 05:52:13;;;;;;;48.42;22.45;;;8.20;99.90;;;;;;5011496;28;20108;-39
2023/02/24 05:54:41;;;;;;;45.38;21.70;;;8.20;99.90;;;;;;5011536;28;20022;-39
2023/02/24 05:57:13;;;;;;;48.22;23.00;;;8.30;99.90;;;;;;5010447;28;20029;-40
2023/02/24 05:59:40;;;;;;;44.20;21.25;;;8.30;99.90;;;;;;5011957;28;20101;-41
2023/02/24 06:02:10;;;;;;;45.08;21.02;;;8.30;99.90;;;;;;5010335;28;20389;-39
2023/02/24 06:04:44;;;;;;;48.03;22.58;;;8.30;99.90;;;;;;5011522;28;20168;-40
2023/02/24 06:07:18;;;;;;;54.80;24.05;;;8.20;99.90;;;;;;5011587;28;20152;-39
2023/02/24 06:09:48;;;;;;;45.78;21.85;;;8.20;99.90;;;;;;5011390;28;20620;-40
2023/02/24 06:12:13;;;;;;;48.05;22.80;;;8.20;99.90;;;;;;5011897;28;20025;-39
2023/02/24 06:14:39;;;;;;;45.55;23.17;;;8.20;99.90;;;;;;5011459;28;20021;-40
2023/02/24 06:17:05;;;;;;;49.38;23.67;;;8.20;99.90;;;;;;5011540;28;20397;-41
2023/02/24 06:19:30;;;;;;;46.35;23.20;;;8.20;99.90;;;;;;5011501;28;20186;-42
2023/02/24 06:22:00;;;;;;;46.72;21.80;;;8.20;99.90;;;;;;5011518;28;20030;-51
2023/02/24 06:24:28;;;;;;;47.42;22.50;;;8.20;99.90;;;;;;5013233;28;20444;-41
2023/02/24 06:27:01;;;;;;;46.75;22.90;;;8.20;99.90;;;;;;5015288;28;20021;-40
2023/02/24 06:29:29;;;;;;;47.20;23.10;;;8.20;99.90;;;;;;5015170;28;20108;-41
2023/02/24 06:31:56;;;;;;;45.85;21.90;;;8.20;99.90;;;;;;5015245;28;20029;-38
2023/02/24 06:34:23;;;;;;;43.03;21.23;;;8.20;99.90;;;;;;5014977;28;20030;-42
2023/02/24 06:36:50;;;;;;;43.72;21.88;;;8.20;99.90;;;;;;5015029;28;20026;-40
2023/02/24 06:39:15;;;;;;;41.70;22.05;;;8.20;99.90;;;;;;5015248;28;20021;-41
2023/02/24 06:41:41;;;;;;;52.10;23.83;;;8.30;99.90;;;;;;5013662;28;20032;-40
2023/02/24 06:44:08;;;;;;;47.95;23.42;;;8.30;99.90;;;;;;5014981;28;20069;-41
2023/02/24 06:46:34;;;;;;;48.63;22.75;;;8.30;99.90;;;;;;5015333;28;20057;-41
2023/02/24 06:48:59;;;;;;;42.85;22.05;;;8.40;99.90;;;;;;5015810;28;20461;-41
2023/02/24 06:51:28;;;;;;;44.47;23.48;;;8.40;99.90;;;;;;5015209;28;20049;-39
2023/02/24 06:53:58;;;;;;;41.35;21.27;;;8.40;99.90;;;;;;5014519;28;20344;-37
2023/02/24 06:56:24;;;;;;;50.08;21.85;;;8.30;99.90;;;;;;5014952;28;20075;-40
2023/02/24 06:58:52;;;;;;;43.65;22.23;;;8.30;99.90;;;;;;5014875;28;20393;-40
2023/02/24 07:01:27;;;;;;;49.40;23.95;;;8.30;99.90;;;;;;5013410;28;20065;-40
2023/02/24 07:04:16;;;;;;;47.67;23.98;;;8.40;99.90;;;;;;5015135;28;20022;-37
2023/02/24 07:06:44;;;;;;;43.67;22.15;;;8.40;99.90;;;;;;5014762;28;20129;-41
2023/02/24 07:09:12;;;;;;;43.55;23.10;;;8.40;99.90;;;;;;5014529;28;20084;-41
2023/02/24 07:11:40;;;;;;;43.90;22.70;;;8.40;99.90;;;;;;5014700;28;20538;-41
2023/02/24 07:14:06;;;;;;;42.10;23.15;;;8.40;99.90;;;;;;5014647;28;20062;-41
2023/02/24 07:16:33;;;;;;;45.10;22.83;;;8.40;99.90;;;;;;5014264;28;20045;-41
2023/02/24 07:19:08;;;;;;;44.92;23.75;;;8.50;99.90;;;;;;5014961;28;20030;-41
2023/02/24 07:21:38;;;;;;;44.90;21.50;;;8.50;99.90;;;;;;5013172;28;20026;-41
2023/02/24 07:24:05;;;;;;;45.17;22.60;;;8.60;99.90;;;;;;5014153;28;20104;-43
2023/02/24 07:26:30;;;;;;;41.90;22.17;;;8.70;99.90;;;;;;5014179;28;20026;-41
2023/02/24 07:28:56;;;;;;;44.20;21.95;;;8.70;99.90;;;;;;5015652;28;20041;-41
2023/02/24 07:31:24;;;;;;;45.25;21.85;;;8.70;99.90;;;;;;5014367;28;20026;-44
2023/02/24 07:33:55;;;;;;;48.10;24.58;;;8.60;99.90;;;;;;5014606;28;20018;-39
2023/02/24 07:36:22;;;;;;;41.83;22.40;;;8.70;99.90;;;;;;5012983;28;20030;-39
2023/02/24 07:38:52;;;;;;;47.13;23.42;;;8.70;99.90;;;;;;5014151;28;20088;-39
2023/02/24 07:41:21;;;;;;;43.60;23.40;;;8.80;99.90;;;;;;5014192;28;20477;-36
2023/02/24 07:43:49;;;;;;;41.20;22.30;;;8.90;99.90;;;;;;5013951;28;20034;-41
2023/02/24 07:46:23;;;;;;;47.58;24.10;;;8.90;99.90;;;;;;5014669;28;20022;-38
2023/02/24 07:48:49;;;;;;;46.53;24.23;;;8.90;99.90;;;;;;5014171;28;20105;-42
2023/02/24 07:51:18;;;;;;;46.17;24.55;;;9.00;99.90;;;;;;5013677;28;20045;-40
2023/02/24 07:53:47;;;;;;;47.47;23.52;;;9.00;99.90;;;;;;5014464;28;20022;-40
2023/02/24 07:56:16;;;;;;;49.05;25.63;;;9.00;99.90;;;;;;5013941;28;20374;-43
2023/02/24 07:58:43;;;;;;;47.45;25.45;;;9.10;99.90;;;;;;5013612;28;20029;-40
2023/02/24 08:01:16;;;;;;;49.13;25.58;;;9.10;99.90;;;;;;5014236;28;20122;-41
2023/02/24 08:03:43;;;;;;;45.65;24.17;;;9.00;99.90;;;;;;5013580;28;20033;-41
2023/02/24 08:06:14;;;;;;;49.60;25.13;;;9.00;99.90;;;;;;5013530;28;20037;-39
2023/02/24 08:08:59;;;;;;;48.42;22.92;;;9.20;99.90;;;;;;5013520;28;20034;-40
2023/02/24 08:11:33;;;;;;;47.92;24.58;;;9.00;99.90;;;;;;5013652;28;20482;-38
2023/02/24 08:14:01;;;;;;;49.92;24.60;;;9.00;99.90;;;;;;5013476;28;20045;-39
2023/02/24 08:16:38;;;;;;;49.88;25.83;;;8.90;99.90;;;;;;5013633;28;20018;-41
2023/02/24 08:19:04;;;;;;;47.92;25.25;;;8.90;99.90;;;;;;5013434;28;20293;-41
2023/02/24 08:21:36;;;;;;;55.70;28.60;;;8.90;99.90;;;;;;5013227;28;20072;-44
2023/02/24 08:24:03;;;;;;;52.08;26.63;;;9.00;99.90;;;;;;5013056;28;20114;-40
2023/02/24 08:26:30;;;;;;;52.47;25.13;;;8.90;99.90;;;;;;5013638;28;20026;-41
2023/02/24 08:28:56;;;;;;;53.15;26.55;;;8.80;99.90;;;;;;5012986;28;20032;-39
2023/02/24 08:31:22;;;;;;;52.03;25.35;;;8.90;99.90;;;;;;5013372;28;20434;-40
2023/02/24 08:33:47;;;;;;;54.10;26.83;;;9.00;99.90;;;;;;5012892;28;20053;-38
2023/02/24 08:36:20;;;;;;;54.08;28.33;;;9.00;99.90;;;;;;5011312;28;20018;-41
2023/02/24 08:38:50;;;;;;;54.85;28.55;;;9.10;99.90;;;;;;5013383;28;20034;-41
2023/02/24 08:41:19;;;;;;;45.22;25.48;;;9.10;99.90;;;;;;5012878;28;20049;-39
2023/02/24 08:43:46;;;;;;;51.28;26.88;;;9.10;99.90;;;;;;5012733;28;20580;-39
2023/02/24 08:46:20;;;;;;;52.70;26.20;;;9.10;99.90;;;;;;5012683;28;20040;-39
2023/02/24 08:48:55;;;;;;;49.80;27.08;;;9.10;99.90;;;;;;5012865;28;20061;-39
2023/02/24 08:51:30;;;;;;;47.90;26.55;;;9.20;99.90;;;;;;4995318;28;20026;-40
2023/02/24 08:53:58;;;;;;;47.50;26.30;;;9.20;99.90;;;;;;5012798;28;20018;-40
2023/02/24 08:56:33;;;;;;;46.00;25.58;;;9.30;99.90;;;;;;5012345;28;20029;-39
2023/02/24 08:59:04;;;;;;;52.15;25.88;;;9.30;99.90;;;;;;5013246;28;20026;-43
2023/02/24 09:01:38;;;;;;;46.67;27.52;;;9.30;99.90;;;;;;5011125;28;20026;-41
2023/02/24 09:04:17;;;;;;;50.22;26.55;;;9.40;99.90;;;;;;5011964;28;20029;-43
2023/02/24 09:06:45;;;;;;;51.05;27.33;;;9.30;99.90;;;;;;5012331;28;20478;-39
2023/02/24 09:09:19;;;;;;;67.75;28.30;;;9.30;99.90;;;;;;5012422;28;20030;-46
2023/02/24 09:12:04;;;;;;;48.47;26.80;;;9.30;99.90;;;;;;5008533;28;20022;-43
2023/02/24 09:14:35;;;;;;;51.78;27.38;;;9.40;99.90;;;;;;5001452;28;20025;-43
2023/02/24 09:17:04;;;;;;;43.55;26.27;;;9.40;99.90;;;;;;5010425;28;20014;-37
2023/02/24 09:22:30;;;;;;;47.78;26.00;;;9.30;99.90;;;;;;5011517;28;20119;-38
2023/02/24 09:25:17;;;;;;;42.03;23.45;;;9.50;99.90;;;;;;5011958;28;20490;-40
2023/02/24 09:27:53;;;;;;;36.90;21.15;;;9.50;99.90;;;;;;5012633;28;20512;-40
2023/02/24 09:30:34;;;;;;;39.85;22.45;;;9.50;99.90;;;;;;5012418;28;20022;-40
2023/02/24 09:33:21;;;;;;;40.30;21.65;;;9.50;99.90;;;;;;5012253;28;20485;-40
2023/02/24 09:36:09;;;;;;;43.47;23.30;;;9.50;99.90;;;;;;5001952;28;20218;-37
2023/02/24 09:42:45;;;;;;;47.67;22.45;;;9.50;99.90;;;;;;5012237;28;20020;-40
2023/02/24 09:44:33;;;;;;;38.08;22.40;;;9.50;99.90;;;;;;5002726;28;20065;-41
2023/02/24 09:47:14;;;;;;;42.20;21.80;;;9.50;99.90;;;;;;5011993;28;20474;-40
2023/02/24 09:49:55;;;;;;;42.67;22.23;;;9.50;99.90;;;;;;5011850;28;20034;-42
2023/02/24 09:52:38;;;;;;;41.80;22.33;;;9.50;99.90;;;;;;5011922;28;20466;-41
2023/02/24 09:55:28;;;;;;;43.90;21.00;;;9.60;99.90;;;;;;5011902;28;20025;-40
2023/02/24 10:01:19;;;;;;;37.83;20.63;;;9.80;99.90;;;;;;5015966;28;20350;-40
2023/02/24 10:04:03;;;;;;;40.00;22.08;;;9.80;99.90;;;;;;5016310;28;20389;-40
2023/02/24 10:06:48;;;;;;;37.00;20.83;;;9.90;99.90;;;;;;5011523;28;20030;-42
2023/02/24 10:09:33;;;;;;;41.72;20.52;;;9.90;99.90;;;;;;5010796;28;20109;-44
2023/02/24 10:12:04;;;;;;;38.40;20.90;;;9.90;99.90;;;;;;5015932;28;20025;-42
2023/02/24 10:14:51;;;;;;;37.90;21.40;;;9.90;99.90;;;;;;5016440;28;20022;-47
2023/02/24 10:17:23;;;;;;;42.70;22.52;;;10.00;99.90;;;;;;5018500;28;20077;-45
2023/02/24 10:20:12;;;;;;;37.95;21.38;;;10.00;99.90;;;;;;5019213;28;20022;-43
2023/02/24 10:22:52;;;;;;;42.17;23.38;;;10.10;99.90;;;;;;4996213;28;20034;-40
2023/02/24 10:25:22;;;;;;;39.88;21.85;;;10.10;99.90;;;;;;5003597;28;20065;-40
2023/02/24 10:28:02;;;;;;;39.63;22.20;;;10.00;99.90;;;;;;5015195;28;20116;-39
2023/02/24 10:30:40;;;;;;;51.25;22.20;;;10.00;99.90;;;;;;5015383;28;20025;-41
2023/02/24 10:33:36;;;;;;;44.33;23.55;;;10.00;99.90;;;;;;5015352;28;20474;-40
2023/02/24 10:36:07;;;;;;;;;;;10.20;99.90;;;;;;5015937;28;20034;-39
2023/02/24 10:38:34;;;;;;;49.13;21.23;;;10.20;99.90;;;;;;5016047;28;19953;-39
2023/02/24 10:41:04;;;;;;;44.22;21.88;;;10.30;99.90;;;;;;5014218;28;20029;-39
2023/02/24 10:43:32;;;;;;;38.33;21.25;;;10.40;99.90;;;;;;5015550;28;20118;-44
2023/02/24 10:46:06;;;;;;;43.78;22.83;;;10.30;99.90;;;;;;5015047;28;20057;-38
2023/02/24 10:48:37;;;;;;;38.72;21.77;;;10.30;99.90;;;;;;5015019;28;20026;-40
2023/02/24 10:51:20;;;;;;;39.05;20.58;;;10.40;99.90;;;;;;5014953;28;20076;-39
2023/02/24 10:54:08;;;;;;;36.72;20.75;;;10.40;99.90;;;;;;5015127;28;20052;-39
2023/02/24 10:56:40;;;;;;;41.42;20.10;;;10.50;99.90;;;;;;5015059;28;20022;-40
2023/02/24 10:59:29;;;;;;;39.47;20.75;;;10.70;99.90;;;;;;5014643;28;20036;-43
2023/02/24 11:02:23;;;;;;;32.72;19.35;;;10.80;99.90;;;;;;5014209;28;20034;-38
2023/02/24 11:07:24;;;;;;;37.88;19.75;;;11.00;99.90;;;;;;5014809;28;20030;-40
2023/02/24 11:10:24;;;;;;;33.33;19.63;;;11.10;99.90;;;;;;5013781;28;20029;-39
2023/02/24 11:18:31;;;;;;;32.22;18.00;;;11.20;99.90;;;;;;4994914;28;20449;-38
2023/02/24 11:20:58;;;;;;;34.38;17.98;;;11.10;99.90;;;;;;4994293;28;20062;-44
2023/02/24 11:23:33;;;;;;;32.92;18.42;;;11.20;99.90;;;;;;5005759;28;20030;-40
2023/02/24 11:26:20;;;;;;;36.75;19.75;;;11.30;99.90;;;;;;5026701;23;20054;-45
2023/02/24 11:29:10;;;;;;;32.58;17.98;;;11.40;99.90;;;;;;4995159;28;20105;-45
2023/02/24 11:31:50;;;;;;;32.90;18.70;;;11.50;99.90;;;;;;5014283;28;20485;-46
2023/02/24 11:34:29;;;;;;;35.10;19.17;;;11.50;99.90;;;;;;4998767;28;20077;-45
2023/02/24 11:37:14;;;;;;;39.30;19.20;;;11.50;99.90;;;;;;4991820;28;20490;-46
2023/02/24 11:39:52;;;;;;;32.07;19.47;;;11.40;99.90;;;;;;4998054;28;20034;-45
2023/02/24 11:42:24;;;;;;;32.88;17.23;;;11.40;99.90;;;;;;4992798;28;20037;-47
2023/02/24 11:45:01;;;;;;;32.20;19.02;;;11.30;99.90;;;;;;5011416;28;20049;-48
2023/02/24 11:47:35;;;;;;;31.67;18.20;;;11.30;99.90;;;;;;5011870;28;20276;-46
2023/02/24 11:50:26;;;;;;;33.58;18.08;;;11.40;99.90;;;;;;5011858;28;20704;-46
2023/02/24 11:52:54;;;;;;;35.35;18.08;;;11.40;99.90;;;;;;4994671;28;20153;-46
2023/02/24 11:55:33;;;;;;;33.03;17.30;;;11.80;99.90;;;;;;5005725;28;20046;-46
2023/02/24 11:58:04;;;;;;;36.95;18.38;;;11.30;99.90;;;;;;5013746;28;20018;-45
2023/02/24 12:00:32;;;;;;;32.60;18.00;;;11.30;99.90;;;;;;5013589;28;20069;-46
2023/02/24 12:03:17;;;;;;;40.95;20.10;;;11.30;99.90;;;;;;5013623;28;20501;-47
2023/02/24 12:05:48;;;;;;;34.50;18.17;;;11.30;99.90;;;;;;5013529;28;20029;-48
2023/02/24 12:08:23;;;;;;;31.00;17.00;;;11.40;99.90;;;;;;4995767;28;20027;-49
2023/02/24 12:10:54;;;;;;;23.20;12.27;;;11.50;99.90;;;;;;5008138;28;20033;-48
2023/02/24 12:13:31;;;;;;;25.27;13.98;;;11.50;99.90;;;;;;5013425;28;20022;-47
2023/02/24 12:16:09;;;;;;;21.13;12.27;;;11.40;99.90;;;;;;5011882;28;20028;-47
2023/02/24 12:18:39;;;;;;;20.98;12.60;;;11.50;99.90;;;;;;5013965;28;20026;-43
2023/02/24 12:21:30;;;;;;;16.80;10.45;;;11.50;99.90;;;;;;5004500;28;20498;-42
2023/02/24 12:23:57;;;;;;;17.13;9.27;;;11.50;99.90;;;;;;5001900;28;20038;-45
2023/02/24 12:26:41;;;;;;;43.17;27.17;;;11.50;99.90;;;;;;5013072;28;20026;-44
2023/02/24 12:29:31;;;;;;;41.10;24.63;;;11.50;99.90;;;;;;5013234;28;20026;-48
2023/02/24 12:32:22;;;;;;;22.30;12.15;;;11.50;99.90;;;;;;5014025;28;20338;-46
2023/02/24 12:34:48;;;;;;;15.07;8.95;;;11.60;99.90;;;;;;5012842;28;20153;-46
2023/02/24 12:37:29;;;;;;;16.15;9.63;;;11.60;99.90;;;;;;5012792;28;20490;-44
2023/02/24 12:40:00;;;;;;;17.15;10.15;;;11.60;99.90;;;;;;5013281;28;20109;-44
2023/02/24 12:42:48;;;;;;;11.70;7.97;;;11.40;99.90;;;;;;5012729;28;20030;-46
2023/02/24 12:45:49;;;;;;;14.00;7.70;;;11.40;99.90;;;;;;5012652;28;20390;-44
2023/02/24 12:48:18;;;;;;;12.95;8.00;;;11.40;99.90;;;;;;5013019;28;20559;-46
2023/02/24 12:51:15;;;;;;;13.65;9.00;;;11.40;99.90;;;;;;5013159;28;20084;-47
2023/02/24 12:53:53;;;;;;;10.55;7.53;;;11.30;99.90;;;;;;4997584;28;20085;-48
2023/02/24 12:56:31;;;;;;;12.90;8.45;;;11.30;99.90;;;;;;5011312;28;20028;-44
2023/02/24 12:59:01;;;;;;;13.68;8.20;;;11.30;99.90;;;;;;5011172;28;20346;-48
2023/02/24 13:01:48;;;;;;;12.05;7.68;;;11.30;99.90;;;;;;5012554;28;20087;-45
2023/02/24 13:04:48;;;;;;;17.05;7.80;;;11.30;99.90;;;;;;5012325;28;20374;-43
2023/02/24 13:07:43;;;;;;;14.25;8.25;;;11.40;99.90;;;;;;5012305;28;20034;-47
2023/02/24 13:10:34;;;;;;;14.50;8.18;;;11.30;99.90;;;;;;5012407;28;20026;-48
2023/02/24 13:13:22;;;;;;;14.27;7.88;;;11.30;99.90;;;;;;5012480;28;20072;-44
2023/02/24 13:15:57;;;;;;;15.98;8.07;;;11.20;99.90;;;;;;5012180;28;20018;-42
2023/02/24 13:18:26;;;;;;;12.50;8.07;;;11.10;99.90;;;;;;5012356;28;20033;-44
2023/02/24 13:21:21;;;;;;;15.30;7.97;;;11.20;99.90;;;;;;5012090;28;20264;-47
2023/02/24 13:24:02;;;;;;;16.58;7.55;;;11.30;99.90;;;;;;5012110;28;20018;-46
2023/02/24 13:26:30;;;;;;;13.20;7.68;;;11.20;99.90;;;;;;5011963;28;20062;-47
2023/02/24 13:29:02;;;;;;;17.90;7.90;;;11.20;99.90;;;;;;5012001;28;20404;-44
2023/02/24 13:31:51;;;;;;;18.50;7.53;;;11.10;99.90;;;;;;5011983;28;20026;-45